Time;durP1;ratioP1;P1;durP2;ratioP2;P2;SDS_P1;SDS_P2;PMS_P1;PMS_P2;Temp;Humidity;BMP_temperature;BMP_pressure;BME280_temperature;BME280_humidity;BME280_pressure;Samples;Min_cycle;Max_cycle;Signal;HPM_P1;HPM_P2
2023/01/29 00:01:06;;;;;;;11.27;8.17;;;0.10;99.90;;;;;;5012266;28;20721;-67
2023/01/29 00:03:32;;;;;;;14.97;9.13;;;0.20;99.90;;;;;;5009928;28;20285;-68
2023/01/29 00:05:58;;;;;;;9.03;7.03;;;0.30;99.90;;;;;;5007885;28;20213;-67
2023/01/29 00:08:24;;;;;;;10.97;7.10;;;0.30;99.90;;;;;;5007251;28;20198;-66
2023/01/29 00:10:49;;;;;;;8.20;6.13;;;0.30;99.90;;;;;;5005114;28;20213;-67
2023/01/29 00:13:15;;;;;;;8.20;7.27;;;0.30;99.90;;;;;;5006194;28;20206;-66
2023/01/29 00:15:41;;;;;;;8.07;7.00;;;0.30;99.90;;;;;;5012826;28;20202;-66
2023/01/29 00:18:06;;;;;;;11.13;8.00;;;0.30;99.90;;;;;;5012396;28;20205;-67
2023/01/29 00:20:32;;;;;;;8.80;7.13;;;0.30;99.90;;;;;;5008718;28;20588;-66
2023/01/29 00:22:58;;;;;;;9.10;8.07;;;0.30;99.90;;;;;;5008969;28;20236;-58
2023/01/29 00:25:24;;;;;;;8.53;7.10;;;0.30;99.90;;;;;;5009251;28;20219;-59
2023/01/29 00:27:50;;;;;;;8.57;7.67;;;0.30;99.90;;;;;;5006921;28;20232;-59
2023/01/29 00:30:18;;;;;;;11.20;8.30;;;0.40;99.90;;;;;;5008354;28;20244;-59
2023/01/29 00:32:44;;;;;;;9.47;7.70;;;0.40;99.90;;;;;;5003037;28;20420;-58
2023/01/29 00:35:10;;;;;;;10.67;8.47;;;0.40;99.90;;;;;;5004798;28;20771;-59
2023/01/29 00:37:35;;;;;;;12.07;7.10;;;0.40;99.90;;;;;;5004545;28;20253;-59
2023/01/29 00:40:01;;;;;;;9.27;8.10;;;0.40;99.90;;;;;;5006397;28;20235;-56
2023/01/29 00:45:11;;;;;;;12.73;9.10;;;0.50;99.90;;;;;;5004647;28;20220;-58
2023/01/29 00:47:36;;;;;;;10.10;8.67;;;0.50;99.90;;;;;;5003186;28;20716;-59
2023/01/29 00:50:06;;;;;;;11.27;9.27;;;0.50;99.90;;;;;;5002806;28;20223;-56
2023/01/29 00:52:32;;;;;;;10.87;9.73;;;0.40;99.90;;;;;;5006450;28;20623;-58
2023/01/29 00:54:59;;;;;;;11.77;10.03;;;0.40;99.90;;;;;;5003340;28;20230;-57
2023/01/29 00:57:27;;;;;;;11.20;9.40;;;0.40;99.90;;;;;;5004091;28;20210;-57
2023/01/29 00:59:52;;;;;;;13.00;9.40;;;0.40;99.90;;;;;;5005167;28;20786;-57
2023/01/29 01:05:06;;;;;;;11.03;9.33;;;0.40;99.90;;;;;;5004933;28;20268;-57
2023/01/29 01:07:32;;;;;;;14.33;11.00;;;0.40;99.90;;;;;;5005665;28;20657;-57
2023/01/29 01:12:41;;;;;;;14.77;10.87;;;0.30;99.90;;;;;;5008765;28;20674;-57
2023/01/29 01:15:07;;;;;;;14.83;10.00;;;0.30;99.90;;;;;;5007811;28;20205;-58
2023/01/29 01:17:33;;;;;;;13.80;11.03;;;0.30;99.90;;;;;;5000174;28;20363;-56
2023/01/29 01:19:59;;;;;;;11.67;10.27;;;0.30;99.90;;;;;;4998645;28;20209;-58
2023/01/29 01:22:24;;;;;;;14.47;10.67;;;0.20;99.90;;;;;;5000445;28;20225;-57
2023/01/29 01:24:50;;;;;;;14.33;10.27;;;0.30;99.90;;;;;;5001633;28;20308;-57
2023/01/29 01:27:18;;;;;;;14.03;10.20;;;0.30;99.90;;;;;;5008091;28;20214;-57
2023/01/29 01:29:44;;;;;;;13.20;10.77;;;0.30;99.90;;;;;;5005702;28;20291;-58
2023/01/29 01:32:10;;;;;;;13.33;9.83;;;0.30;99.90;;;;;;5002661;28;20204;-58
2023/01/29 01:34:35;;;;;;;11.57;10.37;;;0.30;99.90;;;;;;5006335;28;20206;-57
2023/01/29 01:37:01;;;;;;;24.07;16.63;;;0.30;99.90;;;;;;5008480;28;20207;-56
2023/01/29 01:39:26;;;;;;;14.37;10.90;;;0.30;99.90;;;;;;5003231;28;20645;-57
2023/01/29 01:41:54;;;;;;;13.87;10.83;;;0.30;99.90;;;;;;5001378;28;20207;-57
2023/01/29 01:44:53;;;;;;;13.27;11.90;;;0.30;99.90;;;;;;5004521;28;20215;-58
2023/01/29 01:47:47;;;;;;;13.77;10.40;;;0.30;99.90;;;;;;4999183;28;20206;-56
2023/01/29 01:50:15;;;;;;;16.67;13.23;;;0.40;99.90;;;;;;5002836;28;20638;-56
2023/01/29 01:52:46;;;;;;;17.00;11.30;;;0.40;99.90;;;;;;5002825;28;20655;-56
2023/01/29 01:55:14;;;;;;;17.73;12.23;;;0.50;99.90;;;;;;5004771;28;20615;-57
2023/01/29 01:57:44;;;;;;;17.30;11.63;;;0.50;99.90;;;;;;4996240;28;20311;-57
2023/01/29 02:00:14;;;;;;;15.17;11.03;;;0.50;99.90;;;;;;5001187;28;20616;-57
2023/01/29 02:11:01;;;;;;;14.17;10.57;;;0.50;99.90;;;;;;5002019;28;20653;-58
2023/01/29 02:13:26;;;;;;;13.73;11.60;;;0.50;99.90;;;;;;4998141;28;20195;-57
2023/01/29 02:15:52;;;;;;;13.87;11.20;;;0.50;99.90;;;;;;4999570;28;20209;-57
2023/01/29 02:18:20;;;;;;;14.87;11.50;;;0.50;99.90;;;;;;4999902;28;20210;-57
2023/01/29 02:21:23;;;;;;;16.40;11.17;;;0.50;99.90;;;;;;4998961;28;20209;-58
2023/01/29 02:24:04;;;;;;;15.07;11.90;;;0.50;99.90;;;;;;5008052;28;20244;-58
2023/01/29 02:26:46;;;;;;;14.40;11.73;;;0.60;99.90;;;;;;4996455;28;20210;-57
2023/01/29 02:29:29;;;;;;;15.63;10.97;;;0.50;99.90;;;;;;5003120;28;20198;-57
2023/01/29 02:32:18;;;;;;;19.53;13.33;;;0.50;99.90;;;;;;5008040;28;20641;-58
2023/01/29 02:38:10;;;;;;;12.93;9.97;;;0.50;99.90;;;;;;5009169;28;20216;-59
2023/01/29 02:40:42;;;;;;;16.83;11.83;;;0.50;99.90;;;;;;5007594;28;20206;-58
2023/01/29 02:43:31;;;;;;;13.63;10.27;;;0.50;99.90;;;;;;5007715;28;20243;-58
2023/01/29 02:46:33;;;;;;;19.00;12.50;;;0.50;99.90;;;;;;5006416;28;20712;-57
2023/01/29 02:49:10;;;;;;;15.40;10.67;;;0.50;99.90;;;;;;5008133;28;20204;-64
2023/01/29 02:51:45;;;;;;;18.23;11.63;;;0.60;99.90;;;;;;5008420;28;20556;-57
2023/01/29 02:54:41;;;;;;;13.03;10.17;;;0.60;99.90;;;;;;5005916;28;20200;-57
2023/01/29 02:57:19;;;;;;;25.27;17.77;;;0.60;99.90;;;;;;4981277;28;20644;-57
2023/01/29 03:00:03;;;;;;;15.30;10.97;;;0.60;99.90;;;;;;5009079;28;20236;-56
2023/01/29 03:02:47;;;;;;;16.97;13.10;;;0.70;99.90;;;;;;5009249;28;20293;-57
2023/01/29 03:05:20;;;;;;;21.93;14.03;;;0.70;99.90;;;;;;5006462;28;20584;-57
2023/01/29 03:07:54;;;;;;;14.57;12.23;;;0.70;99.90;;;;;;5015078;28;20208;-58
2023/01/29 03:10:37;;;;;;;14.00;10.77;;;0.70;99.90;;;;;;5002440;28;20585;-58
2023/01/29 03:13:20;;;;;;;19.17;12.47;;;0.70;99.90;;;;;;5004977;28;20213;-56
2023/01/29 03:15:53;;;;;;;17.80;12.73;;;0.70;99.90;;;;;;5012249;28;20782;-57
2023/01/29 03:18:26;;;;;;;13.00;10.50;;;0.70;99.90;;;;;;5005064;28;20282;-57
2023/01/29 03:20:57;;;;;;;12.00;9.83;;;0.70;99.90;;;;;;5005579;28;20285;-57
2023/01/29 03:32:05;;;;;;;18.87;13.47;;;0.70;99.90;;;;;;5013704;28;20242;-57
2023/01/29 03:34:40;;;;;;;20.00;13.00;;;0.70;99.90;;;;;;5010234;28;20300;-59
2023/01/29 03:37:17;;;;;;;17.97;11.90;;;0.70;99.90;;;;;;5005708;28;20647;-58
2023/01/29 03:39:43;;;;;;;16.77;13.27;;;0.70;99.90;;;;;;5008186;28;20257;-58
2023/01/29 03:42:11;;;;;;;17.07;12.47;;;0.70;99.90;;;;;;5008341;28;20657;-58
2023/01/29 03:45:15;;;;;;;13.50;10.63;;;0.70;99.90;;;;;;5007530;28;20296;-58
2023/01/29 03:48:05;;;;;;;16.33;12.40;;;0.70;99.90;;;;;;5007519;28;20233;-57
2023/01/29 03:50:50;;;;;;;18.10;11.70;;;0.70;99.90;;;;;;5007834;28;20196;-58
2023/01/29 03:53:29;;;;;;;16.80;12.80;;;0.70;99.90;;;;;;5006115;28;20201;-59
2023/01/29 03:56:02;;;;;;;15.97;10.93;;;0.60;99.90;;;;;;4999971;28;20205;-57
2023/01/29 03:58:42;;;;;;;13.17;10.53;;;0.60;99.90;;;;;;5009394;28;20201;-58
2023/01/29 04:01:34;;;;;;;20.17;12.63;;;0.60;99.90;;;;;;5009722;28;20217;-58
2023/01/29 04:04:36;;;;;;;17.80;13.57;;;0.50;99.90;;;;;;5011226;28;20203;-59
2023/01/29 04:07:28;;;;;;;15.77;12.13;;;0.50;99.90;;;;;;5008061;28;20201;-60
2023/01/29 04:10:00;;;;;;;18.00;13.30;;;0.50;99.90;;;;;;5002419;28;20222;-60
2023/01/29 04:12:29;;;;;;;16.97;12.23;;;0.50;99.90;;;;;;5007238;28;20202;-61
2023/01/29 04:14:59;;;;;;;15.90;11.73;;;0.60;99.90;;;;;;5008805;28;20735;-59
2023/01/29 04:17:31;;;;;;;19.40;13.93;;;0.60;99.90;;;;;;5006800;28;20865;-59
2023/01/29 04:19:58;;;;;;;14.20;12.03;;;0.60;99.90;;;;;;5005671;28;20201;-59
2023/01/29 04:22:30;;;;;;;19.07;14.60;;;0.60;99.90;;;;;;4990770;28;20224;-58
2023/01/29 04:25:01;;;;;;;14.37;11.17;;;0.60;99.90;;;;;;5014790;28;20274;-58
2023/01/29 04:27:38;;;;;;;20.30;12.73;;;0.50;99.90;;;;;;5006046;28;20212;-58
2023/01/29 04:30:20;;;;;;;18.30;13.47;;;0.40;99.90;;;;;;5007525;28;20341;-58
2023/01/29 04:33:22;;;;;;;20.40;14.40;;;0.40;99.90;;;;;;5012290;28;20849;-59
2023/01/29 04:36:07;;;;;;;17.80;13.30;;;0.40;99.90;;;;;;5013440;28;20680;-58
2023/01/29 04:38:56;;;;;;;19.77;14.20;;;0.40;99.90;;;;;;5009568;28;20204;-58
2023/01/29 04:41:49;;;;;;;24.07;15.87;;;0.40;99.90;;;;;;5008572;28;20210;-58
2023/01/29 04:44:30;;;;;;;22.87;15.43;;;0.40;99.90;;;;;;5007464;28;20245;-58
2023/01/29 04:47:14;;;;;;;21.53;14.53;;;0.40;99.90;;;;;;5005323;28;20546;-57
2023/01/29 04:49:48;;;;;;;18.00;13.80;;;0.50;99.90;;;;;;5006016;28;20703;-58
2023/01/29 04:52:44;;;;;;;18.23;13.93;;;0.50;99.90;;;;;;5010043;28;20270;-59
2023/01/29 04:55:22;;;;;;;23.70;16.97;;;0.40;99.90;;;;;;5001335;28;20978;-58
2023/01/29 04:58:11;;;;;;;28.47;19.37;;;0.50;99.90;;;;;;5001986;28;20216;-59
2023/01/29 05:00:40;;;;;;;16.60;12.40;;;0.50;99.90;;;;;;5007091;28;20209;-58
2023/01/29 05:03:08;;;;;;;20.17;14.40;;;0.50;99.90;;;;;;5011518;28;20288;-59
2023/01/29 05:05:34;;;;;;;19.03;14.27;;;0.50;99.90;;;;;;5007719;28;20301;-59
2023/01/29 05:08:00;;;;;;;20.17;15.00;;;0.50;99.90;;;;;;5007129;28;20260;-59
2023/01/29 05:10:27;;;;;;;19.73;15.00;;;0.50;99.90;;;;;;5005962;28;20202;-60
2023/01/29 05:13:05;;;;;;;18.23;12.33;;;0.40;99.90;;;;;;5003466;28;20248;-59
2023/01/29 05:15:40;;;;;;;21.93;15.03;;;0.40;99.90;;;;;;5004516;28;20232;-58
2023/01/29 05:18:07;;;;;;;22.63;15.70;;;0.40;99.90;;;;;;4999199;28;20334;-60
2023/01/29 05:20:36;;;;;;;21.80;15.70;;;0.40;99.90;;;;;;5000998;28;20232;-58
2023/01/29 05:23:02;;;;;;;21.17;15.10;;;0.40;99.90;;;;;;4997400;28;20228;-58
2023/01/29 05:25:30;;;;;;;20.13;14.83;;;0.40;99.90;;;;;;5006194;28;20649;-58
2023/01/29 05:28:05;;;;;;;22.30;16.03;;;0.40;99.90;;;;;;5010787;28;20293;-58
2023/01/29 05:30:33;;;;;;;22.17;14.77;;;0.40;99.90;;;;;;5011090;28;20924;-58
2023/01/29 05:32:58;;;;;;;19.03;15.67;;;0.40;99.90;;;;;;5011173;28;20236;-59
2023/01/29 05:35:24;;;;;;;27.93;16.93;;;0.50;99.90;;;;;;5004718;28;20225;-58
2023/01/29 05:37:49;;;;;;;23.70;16.73;;;0.50;99.90;;;;;;5006657;28;20727;-57
2023/01/29 05:40:15;;;;;;;42.80;28.77;;;0.50;99.90;;;;;;5006318;28;20619;-58
2023/01/29 05:42:40;;;;;;;36.53;22.83;;;0.60;99.90;;;;;;5007107;28;20300;-59
2023/01/29 05:45:07;;;;;;;34.43;24.57;;;0.70;99.90;;;;;;5006527;28;20320;-58
2023/01/29 05:47:32;;;;;;;22.57;16.27;;;0.70;99.90;;;;;;5003117;28;20196;-57
2023/01/29 05:49:58;;;;;;;23.70;16.47;;;0.70;99.90;;;;;;5003194;28;20542;-58
2023/01/29 05:52:23;;;;;;;23.07;16.20;;;0.70;99.90;;;;;;5001871;28;20281;-57
2023/01/29 05:54:49;;;;;;;22.17;16.80;;;0.70;99.90;;;;;;5001866;28;20216;-59
2023/01/29 05:57:14;;;;;;;22.07;17.03;;;0.70;99.90;;;;;;5007186;28;20574;-59
2023/01/29 05:59:40;;;;;;;29.40;20.47;;;0.70;99.90;;;;;;5011480;28;20207;-58
2023/01/29 06:02:05;;;;;;;26.27;16.30;;;0.70;99.90;;;;;;5006501;28;20908;-59
2023/01/29 06:04:31;;;;;;;22.27;15.13;;;0.70;99.90;;;;;;5006835;28;20202;-66
2023/01/29 06:06:56;;;;;;;19.90;15.10;;;0.70;99.90;;;;;;5003553;28;20208;-59
2023/01/29 06:09:22;;;;;;;21.83;14.53;;;0.80;99.90;;;;;;4990809;28;20204;-57
2023/01/29 06:11:47;;;;;;;24.43;16.37;;;0.80;99.90;;;;;;5009902;28;20208;-67
2023/01/29 06:14:13;;;;;;;25.43;16.73;;;0.80;99.90;;;;;;5005228;28;20193;-60
2023/01/29 06:16:38;;;;;;;20.57;15.40;;;0.90;99.90;;;;;;5002346;28;20509;-58
2023/01/29 06:19:04;;;;;;;22.17;15.87;;;0.90;99.90;;;;;;5004827;28;20720;-60
2023/01/29 06:21:29;;;;;;;21.67;16.10;;;0.90;99.90;;;;;;5004645;28;20227;-60
2023/01/29 06:23:55;;;;;;;24.10;16.73;;;0.90;99.90;;;;;;5004234;28;20684;-59
2023/01/29 06:26:20;;;;;;;23.13;16.37;;;0.80;99.90;;;;;;5004424;28;20666;-58
2023/01/29 06:28:49;;;;;;;23.40;16.27;;;0.80;99.90;;;;;;5007820;28;20298;-57
2023/01/29 06:31:15;;;;;;;23.07;16.63;;;0.80;99.90;;;;;;5005079;28;20201;-59
2023/01/29 06:33:40;;;;;;;24.97;15.57;;;0.80;99.90;;;;;;5003352;28;20204;-58
2023/01/29 06:36:06;;;;;;;21.60;16.23;;;0.80;99.90;;;;;;5000914;28;20301;-58
2023/01/29 06:38:32;;;;;;;25.37;16.73;;;0.70;99.90;;;;;;5003908;28;20277;-59
2023/01/29 06:40:58;;;;;;;22.97;16.53;;;0.80;99.90;;;;;;5007153;28;20390;-59
2023/01/29 06:43:24;;;;;;;26.60;15.60;;;0.80;99.90;;;;;;5005623;28;20866;-58
2023/01/29 06:45:51;;;;;;;23.10;17.50;;;0.80;99.90;;;;;;5006420;28;20211;-57
2023/01/29 06:48:17;;;;;;;23.00;17.07;;;0.80;99.90;;;;;;5006608;28;20210;-58
2023/01/29 06:50:43;;;;;;;25.00;18.37;;;0.80;99.90;;;;;;5001704;28;20202;-58
2023/01/29 06:53:08;;;;;;;21.23;16.23;;;0.80;99.90;;;;;;5013403;28;20208;-58
2023/01/29 06:55:33;;;;;;;29.50;20.57;;;0.80;99.90;;;;;;5003512;28;20892;-54
2023/01/29 06:58:03;;;;;;;23.23;16.07;;;0.80;99.90;;;;;;5001067;28;20211;-53
2023/01/29 07:00:28;;;;;;;23.07;17.10;;;1.20;99.90;;;;;;4998232;28;20209;-54
2023/01/29 07:02:54;;;;;;;25.67;17.47;;;1.50;99.90;;;;;;5007014;28;20210;-61
2023/01/29 07:05:19;;;;;;;22.17;17.07;;;1.60;99.90;;;;;;5006732;28;20331;-58
2023/01/29 07:07:45;;;;;;;30.50;19.33;;;1.60;99.90;;;;;;4988379;28;20209;-59
2023/01/29 07:10:10;;;;;;;21.80;16.87;;;1.50;99.90;;;;;;5006376;28;20206;-58
2023/01/29 07:12:36;;;;;;;27.20;17.37;;;1.50;99.90;;;;;;5004226;28;20203;-57
2023/01/29 07:15:01;;;;;;;26.43;17.57;;;1.40;99.90;;;;;;5007525;28;20660;-58
2023/01/29 07:17:27;;;;;;;27.23;16.57;;;1.30;99.90;;;;;;5004612;28;20496;-57
2023/01/29 07:19:52;;;;;;;22.60;16.37;;;1.30;99.90;;;;;;5007056;28;20206;-61
2023/01/29 07:22:18;;;;;;;25.37;17.77;;;1.20;99.90;;;;;;5004760;28;20220;-60
2023/01/29 07:24:43;;;;;;;21.40;16.50;;;1.20;99.90;;;;;;5006285;28;20225;-58
2023/01/29 07:27:09;;;;;;;22.10;16.10;;;1.20;99.90;;;;;;5003930;28;20202;-59
2023/01/29 07:29:34;;;;;;;28.20;18.77;;;1.10;99.90;;;;;;5003022;28;20214;-59
2023/01/29 07:32:00;;;;;;;27.97;19.77;;;1.10;99.90;;;;;;5006111;28;20802;-58
2023/01/29 07:34:25;;;;;;;29.07;18.17;;;1.10;99.90;;;;;;5001887;28;20242;-58
2023/01/29 07:36:55;;;;;;;28.07;17.73;;;1.10;99.90;;;;;;4996831;28;20573;-57
2023/01/29 07:39:21;;;;;;;26.10;17.17;;;1.10;99.90;;;;;;4997835;28;20203;-59
2023/01/29 07:41:46;;;;;;;26.43;17.83;;;1.10;99.90;;;;;;5005748;28;20696;-59
2023/01/29 07:44:12;;;;;;;28.17;21.07;;;1.20;99.90;;;;;;5004732;28;20194;-59
2023/01/29 07:46:37;;;;;;;30.80;18.03;;;1.20;99.90;;;;;;5001034;28;20220;-59
2023/01/29 07:49:03;;;;;;;25.97;18.47;;;1.20;99.90;;;;;;5009558;28;20572;-59
2023/01/29 07:51:28;;;;;;;25.43;18.20;;;1.20;99.90;;;;;;5007892;28;20198;-58
2023/01/29 07:53:54;;;;;;;21.63;17.17;;;1.20;99.90;;;;;;5009228;28;20198;-58
2023/01/29 07:56:19;;;;;;;26.77;17.13;;;1.10;99.90;;;;;;5011545;28;20281;-56
2023/01/29 07:58:45;;;;;;;27.87;18.43;;;1.20;99.90;;;;;;5011541;28;20219;-57
2023/01/29 08:01:10;;;;;;;30.17;18.67;;;1.20;99.90;;;;;;5005116;28;20799;-58
2023/01/29 08:03:36;;;;;;;27.57;17.83;;;1.20;99.90;;;;;;5012582;28;20215;-58
2023/01/29 08:06:03;;;;;;;23.03;15.27;;;1.20;99.90;;;;;;5012550;28;20286;-60
2023/01/29 08:08:29;;;;;;;26.83;18.40;;;1.20;99.90;;;;;;5008901;28;20205;-58
2023/01/29 08:10:54;;;;;;;26.03;17.40;;;1.20;99.90;;;;;;5007118;28;20202;-58
2023/01/29 08:13:20;;;;;;;25.53;17.80;;;1.20;99.90;;;;;;5006643;28;20217;-58
2023/01/29 08:15:46;;;;;;;24.77;17.40;;;1.20;99.90;;;;;;5012299;28;20879;-58
2023/01/29 08:18:12;;;;;;;25.77;19.03;;;1.20;99.90;;;;;;5005354;28;20205;-58
2023/01/29 08:20:37;;;;;;;24.80;18.57;;;1.20;99.90;;;;;;5006497;28;20235;-59
2023/01/29 08:23:06;;;;;;;28.37;18.53;;;1.20;99.90;;;;;;5008320;28;20699;-59
2023/01/29 08:25:33;;;;;;;23.60;16.37;;;1.30;99.90;;;;;;5015218;28;20220;-60
2023/01/29 08:27:59;;;;;;;24.57;17.60;;;1.30;99.90;;;;;;5011665;28;20222;-60
2023/01/29 08:30:30;;;;;;;26.10;19.60;;;1.30;99.90;;;;;;5010422;28;20200;-58
2023/01/29 08:32:55;;;;;;;26.83;18.87;;;1.30;99.90;;;;;;5007427;28;20293;-58
2023/01/29 08:35:21;;;;;;;29.70;20.73;;;1.30;99.90;;;;;;5013326;28;20363;-60
2023/01/29 08:38:00;;;;;;;36.53;18.90;;;1.40;99.90;;;;;;5012573;28;20198;-59
2023/01/29 08:40:27;;;;;;;27.37;17.17;;;1.40;99.90;;;;;;5012845;28;20269;-58
2023/01/29 08:43:00;;;;;;;30.33;18.23;;;1.50;99.90;;;;;;5002554;28;20607;-59
2023/01/29 08:45:26;;;;;;;25.97;17.83;;;1.50;99.90;;;;;;5002364;28;20219;-59
2023/01/29 08:47:51;;;;;;;28.03;17.83;;;1.50;99.90;;;;;;5007202;28;20195;-58
2023/01/29 08:50:17;;;;;;;26.93;18.73;;;1.50;99.90;;;;;;5010099;28;20602;-58
2023/01/29 08:52:43;;;;;;;28.73;18.80;;;1.50;99.90;;;;;;5004000;28;20211;-58
2023/01/29 08:55:09;;;;;;;26.07;18.90;;;1.50;99.90;;;;;;5002584;28;20758;-59
2023/01/29 08:57:35;;;;;;;29.10;19.50;;;1.60;99.90;;;;;;5002280;28;20214;-57
2023/01/29 09:00:02;;;;;;;26.63;17.30;;;1.60;99.90;;;;;;4997250;28;20213;-63
2023/01/29 09:02:28;;;;;;;25.43;18.83;;;1.60;99.90;;;;;;5003169;28;20210;-58
2023/01/29 09:04:53;;;;;;;25.60;18.30;;;1.70;99.90;;;;;;5005005;28;20546;-59
2023/01/29 09:07:20;;;;;;;21.47;15.97;;;1.70;99.90;;;;;;5005975;28;20337;-57
2023/01/29 09:09:46;;;;;;;22.43;17.43;;;1.70;99.90;;;;;;5005465;28;20606;-59
2023/01/29 09:12:11;;;;;;;24.57;16.47;;;1.70;99.90;;;;;;5005252;28;20253;-60
2023/01/29 09:14:37;;;;;;;27.10;18.03;;;1.80;99.90;;;;;;5007829;28;20203;-57
2023/01/29 09:17:02;;;;;;;25.00;16.80;;;1.80;99.90;;;;;;5008810;28;20214;-58
2023/01/29 09:19:28;;;;;;;23.50;18.00;;;1.80;99.90;;;;;;5004621;28;20210;-56
2023/01/29 09:21:53;;;;;;;27.87;17.17;;;1.90;99.90;;;;;;5004485;28;20298;-58
2023/01/29 09:24:18;;;;;;;21.47;15.23;;;1.90;99.90;;;;;;5015329;28;20202;-58
2023/01/29 09:26:44;;;;;;;22.03;16.27;;;2.00;99.90;;;;;;5006713;28;20266;-57
2023/01/29 09:29:10;;;;;;;23.93;16.63;;;2.00;99.90;;;;;;5015865;28;20252;-58
2023/01/29 09:31:35;;;;;;;23.53;16.93;;;2.00;99.90;;;;;;5006349;28;20243;-58
2023/01/29 09:34:01;;;;;;;24.03;17.07;;;2.10;99.90;;;;;;5004470;28;20245;-58
2023/01/29 09:36:26;;;;;;;18.87;12.30;;;2.20;99.90;;;;;;5005019;28;20208;-57
2023/01/29 09:38:52;;;;;;;23.33;16.83;;;2.20;99.90;;;;;;5002628;28;20699;-58
2023/01/29 09:41:29;;;;;;;19.97;15.03;;;2.20;99.90;;;;;;5011955;28;20354;-57
2023/01/29 09:44:00;;;;;;;22.73;16.40;;;2.20;99.90;;;;;;5006896;28;20526;-57
2023/01/29 09:46:40;;;;;;;24.33;17.60;;;2.30;99.90;;;;;;5004752;28;20213;-59
2023/01/29 09:49:31;;;;;;;24.53;17.00;;;2.40;99.90;;;;;;5011550;28;20660;-57
2023/01/29 09:52:19;;;;;;;24.23;16.57;;;2.50;99.90;;;;;;5009201;28;20200;-58
2023/01/29 09:54:51;;;;;;;22.43;16.03;;;2.60;99.90;;;;;;5004438;28;20214;-56
2023/01/29 09:57:26;;;;;;;24.03;14.90;;;2.70;99.90;;;;;;5004611;28;20231;-58
2023/01/29 09:59:51;;;;;;;21.77;14.33;;;2.70;99.90;;;;;;5013444;28;20218;-58
2023/01/29 10:02:53;;;;;;;20.83;15.10;;;2.70;99.90;;;;;;5011721;28;20606;-58
2023/01/29 10:05:40;;;;;;;21.53;14.63;;;2.80;99.90;;;;;;5008182;28;20213;-57
2023/01/29 10:08:14;;;;;;;21.60;15.50;;;2.90;99.90;;;;;;5005725;28;20329;-60
2023/01/29 10:10:55;;;;;;;18.63;15.00;;;2.90;99.90;;;;;;5005707;28;20221;-59
2023/01/29 10:13:46;;;;;;;22.90;16.93;;;2.90;99.90;;;;;;5004477;28;20195;-59
2023/01/29 10:16:28;;;;;;;20.03;13.77;;;2.90;99.90;;;;;;5006636;28;20203;-59
2023/01/29 10:19:17;;;;;;;18.57;14.37;;;2.90;99.90;;;;;;5003000;28;20219;-59
2023/01/29 10:22:28;;;;;;;20.27;13.50;;;2.90;99.90;;;;;;5002113;28;20243;-59
2023/01/29 10:25:01;;;;;;;16.03;11.53;;;2.90;99.90;;;;;;4993236;28;20396;-58
2023/01/29 10:27:32;;;;;;;16.23;12.23;;;3.00;99.90;;;;;;4997531;28;20277;-58
2023/01/29 10:30:01;;;;;;;15.57;12.10;;;3.10;99.90;;;;;;5011057;28;20195;-58
2023/01/29 10:32:28;;;;;;;18.50;13.43;;;3.20;99.90;;;;;;5006429;28;20203;-58
2023/01/29 10:35:04;;;;;;;18.83;14.10;;;3.50;99.90;;;;;;5006050;28;20203;-59
2023/01/29 10:37:39;;;;;;;18.57;12.77;;;3.70;99.90;;;;;;5000466;28;20194;-58
2023/01/29 10:40:22;;;;;;;16.60;12.13;;;4.00;99.90;;;;;;5013753;28;20203;-58
2023/01/29 10:43:09;;;;;;;19.27;12.70;;;4.10;99.90;;;;;;5009913;28;20333;-58
2023/01/29 10:45:56;;;;;;;17.70;12.97;;;4.00;99.90;;;;;;5012542;28;20217;-58
2023/01/29 10:48:42;;;;;;;16.13;11.60;;;4.00;99.90;;;;;;5001730;28;20207;-58
2023/01/29 10:51:45;;;;;;;17.57;12.93;;;4.10;99.90;;;;;;4955185;28;20286;-58
2023/01/29 10:54:41;;;;;;;16.03;11.73;;;4.20;99.90;;;;;;5007904;28;20731;-58
2023/01/29 10:57:45;;;;;;;13.87;11.77;;;4.20;99.90;;;;;;5009944;28;20209;-57
2023/01/29 11:00:23;;;;;;;15.10;11.50;;;4.30;99.90;;;;;;4925930;28;20218;-61
2023/01/29 11:02:50;;;;;;;17.57;11.97;;;4.50;99.90;;;;;;5007920;28;20206;-58
2023/01/29 11:05:33;;;;;;;15.97;12.90;;;4.60;99.90;;;;;;5011541;28;20584;-64
2023/01/29 11:08:07;;;;;;;13.47;10.90;;;4.70;99.90;;;;;;5012048;28;20191;-59
2023/01/29 11:10:40;;;;;;;13.50;9.10;;;4.80;99.90;;;;;;5012788;28;20541;-59
2023/01/29 11:13:08;;;;;;;15.23;11.30;;;4.80;99.90;;;;;;5004724;28;20209;-59
2023/01/29 11:15:34;;;;;;;17.20;12.60;;;4.60;99.90;;;;;;5004224;28;20257;-58
2023/01/29 11:18:12;;;;;;;15.13;11.13;;;4.60;99.90;;;;;;5007003;28;20207;-58
2023/01/29 11:20:37;;;;;;;14.17;11.00;;;4.50;99.90;;;;;;5002484;28;20200;-59
2023/01/29 11:23:03;;;;;;;13.77;11.10;;;4.50;99.90;;;;;;5007640;28;20331;-58
2023/01/29 11:25:31;;;;;;;15.80;11.43;;;4.50;99.90;;;;;;5006163;28;20230;-58
2023/01/29 11:28:01;;;;;;;16.10;12.13;;;4.50;99.90;;;;;;4991356;28;20263;-59
2023/01/29 11:30:34;;;;;;;16.27;11.00;;;4.50;99.90;;;;;;5009625;28;20282;-59
2023/01/29 11:33:18;;;;;;;15.60;11.73;;;4.60;99.90;;;;;;5014440;28;20198;-57
2023/01/29 11:35:43;;;;;;;12.80;10.87;;;4.70;99.90;;;;;;5009763;28;20235;-63
2023/01/29 11:38:15;;;;;;;19.23;11.73;;;4.60;99.90;;;;;;5009600;28;20222;-57
2023/01/29 11:40:41;;;;;;;16.80;12.70;;;4.60;99.90;;;;;;5011416;28;20236;-59
2023/01/29 11:43:30;;;;;;;18.60;14.63;;;4.60;99.90;;;;;;5016431;28;20215;-57
2023/01/29 11:46:11;;;;;;;23.30;19.47;;;4.50;99.90;;;;;;5006946;28;20865;-57
2023/01/29 11:48:42;;;;;;;22.67;18.93;;;4.60;99.90;;;;;;5011235;28;20294;-57
2023/01/29 11:51:11;;;;;;;13.77;12.03;;;4.60;99.90;;;;;;5006726;28;20215;-58
2023/01/29 11:53:40;;;;;;;14.37;11.23;;;4.60;99.90;;;;;;5007993;28;20211;-59
2023/01/29 11:56:39;;;;;;;13.87;11.73;;;4.60;99.90;;;;;;5012690;28;20291;-57
2023/01/29 11:59:07;;;;;;;15.50;9.97;;;4.60;99.90;;;;;;5013386;28;20216;-57
2023/01/29 12:01:36;;;;;;;14.57;12.07;;;4.50;99.90;;;;;;5008598;28;20223;-57
2023/01/29 12:04:13;;;;;;;14.60;11.63;;;4.50;99.90;;;;;;5012107;28;20294;-57
2023/01/29 12:06:42;;;;;;;14.83;11.60;;;4.50;99.90;;;;;;5006968;28;20602;-65
2023/01/29 12:09:13;;;;;;;15.37;11.30;;;4.60;99.90;;;;;;5009837;28;20248;-59
2023/01/29 12:11:38;;;;;;;16.00;11.83;;;4.80;99.90;;;;;;5006482;28;20283;-58
2023/01/29 12:14:19;;;;;;;15.30;9.47;;;4.70;99.90;;;;;;5009205;28;20196;-58
2023/01/29 12:17:17;;;;;;;15.40;12.07;;;4.70;99.90;;;;;;5009837;28;20231;-58
2023/01/29 12:20:02;;;;;;;14.70;12.70;;;4.60;99.90;;;;;;5008067;28;20204;-59
2023/01/29 12:22:39;;;;;;;14.07;10.47;;;4.80;99.90;;;;;;5009558;28;20251;-59
2023/01/29 12:25:20;;;;;;;12.53;9.70;;;4.90;99.90;;;;;;5009915;28;20219;-58
2023/01/29 12:27:53;;;;;;;14.30;10.67;;;5.10;99.90;;;;;;5010725;28;20206;-59
2023/01/29 12:30:38;;;;;;;12.17;10.50;;;5.00;99.90;;;;;;5011665;28;20207;-58
2023/01/29 12:33:42;;;;;;;13.17;11.20;;;4.90;99.90;;;;;;5004978;28;20227;-60
2023/01/29 12:36:27;;;;;;;16.97;12.43;;;4.90;99.90;;;;;;5008380;28;20705;-58
2023/01/29 12:38:54;;;;;;;14.90;10.80;;;4.80;99.90;;;;;;5007996;28;20262;-59
2023/01/29 12:41:27;;;;;;;15.50;11.27;;;4.70;99.90;;;;;;5010861;28;20209;-58
2023/01/29 12:43:56;;;;;;;15.60;10.63;;;4.70;99.90;;;;;;5007270;28;20739;-66
2023/01/29 12:46:29;;;;;;;15.93;11.43;;;4.60;99.90;;;;;;5006452;28;20295;-65
2023/01/29 12:49:00;;;;;;;19.90;12.00;;;4.50;99.90;;;;;;5003542;28;20219;-65
2023/01/29 12:51:33;;;;;;;14.83;11.77;;;4.40;99.90;;;;;;5004616;28;20566;-66
2023/01/29 12:54:13;;;;;;;20.00;11.67;;;4.30;99.90;;;;;;5002745;28;20726;-66
2023/01/29 12:56:45;;;;;;;13.03;9.93;;;4.20;99.90;;;;;;5010752;28;20246;-69
2023/01/29 12:59:31;;;;;;;13.97;11.80;;;4.10;99.90;;;;;;5003928;28;20211;-76
2023/01/29 13:02:14;;;;;;;14.50;11.33;;;4.00;99.90;;;;;;5008286;28;20627;-60
2023/01/29 13:05:14;;;;;;;21.27;12.37;;;4.30;99.90;;;;;;5008915;28;20211;-59
2023/01/29 13:07:46;;;;;;;11.33;8.50;;;4.50;99.90;;;;;;5007170;28;20226;-59
2023/01/29 13:10:16;;;;;;;15.70;12.03;;;4.70;99.90;;;;;;5007133;28;20218;-59
2023/01/29 13:12:55;;;;;;;13.10;10.20;;;4.70;99.90;;;;;;5007342;28;20551;-59
2023/01/29 13:15:33;;;;;;;15.80;11.20;;;4.80;99.90;;;;;;5009940;28;20211;-59
2023/01/29 13:18:06;;;;;;;15.57;10.87;;;4.90;99.90;;;;;;5004904;28;20206;-59
2023/01/29 13:20:34;;;;;;;15.73;11.23;;;4.90;99.90;;;;;;5006912;28;20207;-59
2023/01/29 13:23:19;;;;;;;16.73;12.83;;;4.90;99.90;;;;;;5005575;28;20266;-59
2023/01/29 13:25:48;;;;;;;19.63;13.70;;;5.00;99.90;;;;;;5009660;28;20257;-58
2023/01/29 13:28:24;;;;;;;13.87;10.63;;;5.00;99.90;;;;;;5009412;28;20689;-59
2023/01/29 13:31:24;;;;;;;14.80;9.63;;;5.00;99.90;;;;;;5010190;28;20549;-58
2023/01/29 13:33:54;;;;;;;18.73;11.87;;;5.00;99.90;;;;;;5008179;28;20215;-59